createdAt,value
2018-01-14T00:01:23.981Z,79.70
2018-01-14T00:03:52.299Z,79.90
2018-01-14T00:06:20.566Z,79.30
2018-01-14T00:08:48.840Z,80.00
2018-01-14T00:11:17.123Z,80.10
2018-01-14T00:13:45.387Z,80.10
2018-01-14T00:16:13.675Z,80.10
2018-01-14T00:18:41.938Z,79.70
2018-01-14T00:21:10.960Z,80.90
2018-01-14T00:23:39.195Z,79.90
2018-01-14T00:26:08.256Z,81.20
2018-01-14T00:28:36.529Z,79.80
2018-01-14T00:31:04.791Z,80.00
2018-01-14T00:33:33.036Z,80.20
2018-01-14T00:36:02.080Z,80.60
2018-01-14T00:38:30.360Z,79.50
2018-01-14T00:40:58.634Z,80.00
2018-01-14T00:43:26.924Z,80.30
2018-01-14T00:45:55.920Z,81.40
2018-01-14T00:48:24.220Z,80.20
2018-01-14T00:50:52.454Z,79.90
2018-01-14T00:53:20.728Z,79.90
2018-01-14T00:55:49.016Z,80.20
2018-01-14T00:58:17.260Z,80.20
2018-01-14T01:00:45.534Z,79.70
2018-01-14T01:03:14.544Z,81.00
2018-01-14T01:05:42.810Z,80.10
2018-01-14T01:08:11.885Z,81.30
2018-01-14T01:10:40.175Z,80.20
2018-01-14T01:13:09.203Z,81.30
2018-01-14T01:15:37.427Z,80.30
2018-01-14T01:18:06.498Z,81.30
2018-01-14T01:20:34.737Z,80.20
2018-01-14T01:23:02.996Z,80.10
2018-01-14T01:25:31.285Z,80.10
2018-01-14T01:27:59.528Z,80.20
2018-01-14T01:30:27.787Z,80.20
2018-01-14T01:32:56.074Z,80.10
2018-01-14T01:35:24.329Z,80.30
2018-01-14T01:37:52.621Z,80.40
2018-01-14T01:40:20.883Z,80.10
2018-01-14T01:42:49.123Z,79.60
2018-01-14T01:45:17.403Z,79.80
2018-01-14T01:47:45.656Z,80.30
2018-01-14T01:50:13.950Z,80.20
2018-01-14T01:52:42.163Z,80.20
2018-01-14T01:55:10.475Z,80.20
2018-01-14T01:57:38.767Z,80.30
2018-01-14T02:00:07.773Z,81.30
2018-01-14T02:02:36.027Z,80.30
2018-01-14T02:05:05.083Z,80.90
2018-01-14T02:07:34.095Z,81.00
2018-01-14T02:10:02.382Z,80.10
2018-01-14T02:12:30.626Z,80.10
2018-01-14T02:14:58.877Z,80.20
2018-01-14T02:17:27.116Z,80.30
2018-01-14T02:19:56.165Z,81.60
2018-01-14T02:22:24.396Z,80.60
2018-01-14T02:24:53.692Z,81.30
2018-01-14T02:27:22.752Z,81.20
2018-01-14T02:29:50.971Z,80.10
2018-01-14T02:32:20.040Z,80.80
2018-01-14T02:34:48.280Z,79.80
2018-01-14T02:37:16.564Z,79.90
2018-01-14T02:39:44.859Z,80.40
2018-01-14T02:42:13.136Z,79.90
2018-01-14T02:44:41.419Z,79.80
2018-01-14T02:47:09.668Z,80.30
2018-01-14T02:49:37.972Z,80.10
2018-01-14T02:52:06.250Z,79.70
2018-01-14T02:54:34.524Z,80.10
2018-01-14T02:57:02.766Z,80.10
2018-01-14T02:59:31.003Z,80.00
2018-01-14T03:02:00.006Z,80.80
2018-01-14T03:04:29.069Z,81.20
2018-01-14T03:06:57.341Z,80.20
2018-01-14T03:09:25.627Z,80.00
2018-01-14T03:11:53.902Z,80.20
2018-01-14T03:14:22.211Z,80.30
2018-01-14T03:16:51.209Z,81.00
2018-01-14T03:19:20.266Z,80.80
2018-01-14T03:21:48.503Z,79.80
2018-01-14T03:24:16.783Z,79.90
2018-01-14T03:26:45.081Z,80.70
2018-01-14T03:29:13.309Z,80.40
2018-01-14T03:31:42.367Z,81.20
2018-01-14T03:34:10.638Z,80.10
2018-01-14T03:36:38.884Z,79.70
2018-01-14T03:39:07.112Z,79.60
2018-01-14T03:41:35.402Z,79.70
2018-01-14T03:44:04.448Z,81.20
2018-01-14T03:46:32.748Z,80.10
2018-01-14T03:49:01.035Z,80.10
2018-01-14T03:51:29.257Z,80.40
2018-01-14T03:53:57.553Z,79.80
2018-01-14T03:56:25.775Z,80.30
2018-01-14T03:58:54.791Z,81.30
2018-01-14T04:01:23.076Z,80.30
2018-01-14T04:03:51.328Z,80.40
2018-01-14T04:06:20.324Z,81.50
2018-01-14T04:08:49.383Z,81.20
2018-01-14T04:11:17.661Z,80.20
2018-01-14T04:13:45.950Z,80.30
2018-01-14T04:16:14.219Z,80.20
2018-01-14T04:18:42.772Z,80.70
2018-01-14T04:21:11.056Z,80.30
2018-01-14T04:23:39.290Z,80.50
2018-01-14T04:26:08.327Z,81.80
2018-01-14T04:28:36.598Z,80.70
2018-01-14T04:31:04.852Z,80.70
2018-01-14T04:33:33.139Z,80.80
2018-01-14T04:36:01.431Z,80.90
2018-01-14T04:38:29.664Z,80.70
2018-01-14T04:40:58.724Z,82.00
2018-01-14T04:43:27.772Z,82.00
2018-01-14T04:45:56.776Z,82.10
2018-01-14T04:48:25.049Z,80.90
2018-01-14T04:50:53.285Z,80.90
2018-01-14T04:53:21.583Z,80.80
2018-01-14T04:55:50.627Z,82.30
2018-01-14T04:58:18.911Z,81.00
2018-01-14T05:00:47.189Z,81.20
2018-01-14T05:03:15.472Z,81.50
2018-01-14T05:05:43.708Z,81.20
2018-01-14T05:08:12.355Z,81.30
2018-01-14T05:10:40.614Z,81.10
2018-01-14T05:13:08.887Z,81.20
2018-01-14T05:15:37.176Z,81.30
2018-01-14T05:18:05.412Z,81.50
2018-01-14T05:20:33.667Z,81.40
2018-01-14T05:23:01.899Z,81.30
2018-01-14T05:25:30.182Z,81.60
2018-01-14T05:27:58.450Z,81.60
2018-01-14T05:30:26.709Z,81.60
2018-01-14T05:32:54.944Z,81.50
2018-01-14T05:35:23.991Z,82.50
2018-01-14T05:37:52.270Z,81.50
2018-01-14T05:40:20.488Z,81.60
2018-01-14T05:42:49.510Z,82.90
2018-01-14T05:45:17.784Z,81.80
2018-01-14T05:47:46.065Z,81.80
2018-01-14T05:50:14.301Z,81.80
2018-01-14T05:52:42.847Z,81.90
2018-01-14T05:55:11.084Z,82.20
2018-01-14T05:57:39.355Z,81.90
2018-01-14T06:00:08.370Z,83.00
2018-01-14T06:02:36.646Z,82.00
2018-01-14T06:05:04.947Z,82.20
2018-01-14T06:07:33.169Z,82.20
2018-01-14T06:10:02.183Z,83.40
2018-01-14T06:12:30.429Z,82.30
2018-01-14T06:14:58.708Z,82.10
2018-01-14T06:17:27.723Z,83.40
2018-01-14T06:19:55.950Z,82.40
2018-01-14T06:22:25.015Z,84.20
2018-01-14T06:24:53.247Z,82.60
2018-01-14T06:27:21.497Z,82.70
2018-01-14T06:29:49.731Z,82.70
2018-01-14T06:32:17.993Z,82.70
2018-01-14T06:34:47.048Z,83.60
2018-01-14T06:37:15.296Z,82.60
2018-01-14T06:39:43.591Z,82.60
2018-01-14T06:42:11.847Z,82.80
2018-01-14T06:44:40.134Z,82.60
2018-01-14T06:47:08.405Z,82.50
2018-01-14T06:49:36.712Z,82.70
2018-01-14T06:52:04.992Z,82.70
2018-01-14T06:54:33.219Z,83.10
2018-01-14T06:57:01.475Z,82.90
2018-01-14T06:59:30.490Z,84.10
2018-01-14T07:01:58.720Z,83.00
2018-01-14T07:04:26.982Z,83.00
2018-01-14T07:07:14.500Z,83.10
2018-01-14T07:10:06.664Z,83.90
2018-01-14T07:12:34.887Z,82.90
2018-01-14T07:15:03.129Z,83.00
2018-01-14T07:17:31.383Z,82.90
2018-01-14T07:19:59.621Z,83.10
2018-01-14T07:22:27.910Z,83.80
2018-01-14T07:24:56.137Z,83.20
2018-01-14T07:27:24.391Z,83.00
2018-01-14T07:29:52.623Z,83.50
2018-01-14T07:32:20.925Z,83.70
2018-01-14T07:34:49.144Z,83.90
2018-01-14T07:37:17.417Z,83.90
2018-01-14T07:39:45.659Z,84.20
2018-01-14T07:42:13.889Z,83.70
2018-01-14T07:44:42.920Z,84.30
2018-01-14T07:47:11.195Z,83.30
2018-01-14T07:49:39.468Z,83.40
2018-01-14T07:52:07.697Z,83.10
2018-01-14T07:54:35.950Z,83.20
2018-01-14T07:57:05.000Z,84.20
2018-01-14T07:59:33.237Z,83.20
2018-01-14T08:02:01.478Z,83.40
2018-01-14T08:04:29.740Z,83.30
2018-01-14T08:06:58.033Z,83.00
2018-01-14T08:09:26.251Z,83.20
2018-01-14T08:11:54.553Z,83.00
2018-01-14T08:14:24.468Z,84.30
2018-01-14T08:16:52.779Z,83.10
2018-01-14T08:19:21.053Z,83.10
2018-01-14T08:21:49.309Z,83.00
2018-01-14T08:24:17.561Z,83.10
2018-01-14T08:26:46.610Z,84.40
2018-01-14T08:29:14.853Z,82.90
2018-01-14T08:31:43.129Z,82.90
2018-01-14T08:34:12.154Z,83.90
2018-01-14T08:36:40.436Z,82.80
2018-01-14T08:39:08.739Z,82.40
2018-01-14T08:41:37.033Z,82.60
2018-01-14T08:44:05.840Z,82.30
2018-01-14T08:46:34.841Z,83.50
2018-01-14T08:49:03.352Z,82.40
2018-01-14T08:51:31.601Z,82.50
2018-01-14T08:53:59.882Z,82.20
2018-01-14T08:56:28.171Z,81.90
2018-01-14T08:58:56.390Z,82.40
2018-01-14T09:01:30.445Z,81.90
2018-01-14T09:03:58.666Z,82.10
2018-01-14T09:06:26.944Z,82.20
2018-01-14T09:08:55.191Z,81.90
2018-01-14T09:11:23.422Z,81.90
2018-01-14T09:13:51.674Z,81.80
2018-01-14T09:16:19.943Z,82.90
2018-01-14T09:18:48.184Z,82.10
2018-01-14T09:21:16.460Z,81.80
2018-01-14T09:23:44.727Z,81.90
2018-01-14T09:26:13.007Z,82.20
2018-01-14T09:28:42.006Z,83.30
2018-01-14T09:31:10.304Z,82.20
2018-01-14T09:33:38.585Z,81.80
2018-01-14T09:36:06.848Z,82.30
2018-01-14T09:38:35.092Z,81.90
2018-01-14T09:41:04.155Z,82.80
2018-01-14T09:43:32.419Z,81.80
2018-01-14T09:46:00.668Z,82.30
2018-01-14T09:48:28.908Z,82.20
2018-01-14T09:50:57.141Z,82.50
2018-01-14T09:53:25.422Z,81.70
2018-01-14T09:55:53.752Z,81.50
2018-01-14T09:58:22.035Z,81.30
2018-01-14T10:00:51.072Z,82.60
2018-01-14T10:03:19.320Z,81.60
2018-01-14T10:05:47.613Z,81.30
2018-01-14T10:08:15.843Z,81.40
2018-01-14T10:10:44.931Z,81.90
2018-01-14T10:13:13.199Z,80.90
2018-01-14T10:15:41.440Z,80.50
2018-01-14T10:18:09.719Z,80.60
2018-01-14T10:20:38.009Z,81.30
2018-01-14T10:23:06.245Z,81.30
2018-01-14T10:25:35.295Z,81.80
2018-01-14T10:28:03.575Z,80.70
2018-01-14T10:30:31.816Z,80.40
2018-01-14T10:33:00.150Z,81.20
2018-01-14T10:35:28.692Z,80.70
2018-01-14T10:37:56.939Z,80.90
2018-01-14T10:40:25.199Z,81.00
2018-01-14T10:42:54.187Z,81.60
2018-01-14T10:45:23.203Z,81.60
2018-01-14T10:47:51.449Z,80.50
2018-01-14T10:50:19.771Z,80.40
2018-01-14T10:52:48.068Z,80.70
2018-01-14T10:55:16.293Z,80.00
2018-01-14T10:57:45.336Z,79.50
2018-01-14T11:00:13.583Z,78.50
2018-01-14T11:02:41.859Z,79.60
2018-01-14T11:05:11.802Z,81.00
2018-01-14T11:07:40.043Z,80.00
2018-01-14T11:10:09.088Z,80.20
2018-01-14T11:12:37.371Z,79.30
2018-01-14T11:15:05.666Z,79.60
2018-01-14T11:17:33.924Z,79.30
2018-01-14T11:20:02.153Z,79.40
2018-01-14T11:22:30.436Z,79.80
2018-01-14T11:24:58.726Z,79.00
2018-01-14T11:27:27.007Z,79.20
2018-01-14T11:30:10.073Z,79.50
2018-01-14T11:32:38.354Z,79.50
2018-01-14T11:35:06.636Z,80.10
2018-01-14T11:37:34.967Z,80.80
2018-01-14T11:40:03.949Z,81.10
2018-01-14T11:42:32.215Z,80.10
2018-01-14T11:45:00.468Z,80.20
2018-01-14T11:47:29.475Z,81.40
2018-01-14T11:49:57.751Z,79.60
2018-01-14T11:52:26.791Z,81.40
2018-01-14T11:54:55.078Z,80.30
2018-01-14T11:57:23.383Z,79.70
2018-01-14T11:59:51.704Z,80.60
2018-01-14T12:02:19.949Z,77.70
2018-01-14T12:04:48.985Z,79.30
2018-01-14T12:07:17.221Z,78.10
2018-01-14T12:09:46.252Z,57.20
2018-01-14T12:12:14.813Z,57.20
2018-01-14T12:14:43.155Z,56.10
2018-01-14T12:17:11.416Z,55.40
2018-01-14T12:19:39.818Z,54.20
2018-01-14T12:22:08.848Z,56.60
2018-01-14T12:24:37.096Z,56.60
2018-01-14T12:27:06.127Z,58.40
2018-01-14T12:29:34.425Z,58.40
2018-01-14T12:32:02.705Z,57.20
2018-01-14T12:34:37.759Z,57.10
2018-01-14T12:37:05.984Z,57.00
2018-01-14T12:39:34.303Z,55.40
2018-01-14T12:42:03.371Z,55.30
2018-01-14T12:44:31.650Z,55.10
2018-01-14T12:46:59.902Z,55.40
2018-01-14T12:49:28.183Z,59.10
2018-01-14T12:51:56.433Z,78.60
2018-01-14T12:54:25.474Z,54.90
2018-01-14T12:56:54.528Z,53.40
2018-01-14T12:59:22.771Z,53.40
2018-01-14T13:01:51.027Z,54.50
2018-01-14T13:04:19.313Z,52.90
2018-01-14T13:06:47.638Z,52.10
2018-01-14T13:09:16.648Z,53.00
2018-01-14T13:11:45.708Z,52.90
2018-01-14T13:14:13.963Z,52.80
2018-01-14T13:16:42.224Z,53.20
2018-01-14T13:19:10.482Z,53.80
2018-01-14T13:21:38.733Z,49.90
2018-01-14T13:24:07.759Z,52.90
2018-01-14T13:26:35.997Z,52.70
2018-01-14T13:29:05.026Z,53.70
2018-01-14T13:31:33.316Z,53.10
2018-01-14T13:34:01.631Z,54.20
2018-01-14T13:36:29.899Z,54.30
2018-01-14T13:38:58.175Z,53.20
2018-01-14T13:41:26.436Z,54.20
2018-01-14T13:43:54.712Z,53.20
2018-01-14T13:46:22.955Z,52.40
2018-01-14T13:48:51.257Z,54.60
2018-01-14T13:51:19.543Z,52.80
2018-01-14T13:53:47.777Z,53.80
2018-01-14T13:56:16.798Z,53.60
2018-01-14T13:58:45.083Z,53.40
2018-01-14T14:01:13.367Z,51.90
2018-01-14T14:03:41.671Z,52.10
2018-01-14T14:06:09.889Z,53.50
2018-01-14T14:08:38.950Z,53.30
2018-01-14T14:11:07.172Z,53.20
2018-01-14T14:13:35.455Z,52.10
2018-01-14T14:16:03.752Z,52.40
2018-01-14T14:18:32.018Z,53.40
2018-01-14T14:21:00.277Z,53.10
2018-01-14T14:23:28.559Z,53.00
2018-01-14T14:25:56.816Z,52.80
2018-01-14T14:28:25.876Z,52.30
2018-01-14T14:30:54.255Z,52.10
2018-01-14T14:33:22.556Z,53.20
2018-01-14T14:35:50.841Z,52.30
2018-01-14T14:38:20.408Z,53.50
2018-01-14T14:40:48.700Z,53.30
2018-01-14T14:43:16.987Z,52.50
2018-01-14T14:45:45.274Z,53.50
2018-01-14T14:48:13.508Z,51.70
2018-01-14T14:50:41.748Z,52.30
2018-01-14T14:53:10.014Z,52.60
2018-01-14T14:55:39.063Z,52.80
2018-01-14T14:58:08.077Z,52.60
2018-01-14T15:00:36.356Z,52.60
2018-01-14T15:03:04.644Z,53.40
2018-01-14T15:05:33.689Z,53.50
2018-01-14T15:08:01.964Z,53.10
2018-01-14T15:10:31.124Z,53.30
2018-01-14T15:12:59.391Z,53.30
2018-01-14T15:15:29.364Z,54.90
2018-01-14T15:17:57.643Z,57.50
2018-01-14T15:20:25.924Z,57.50
2018-01-14T15:22:54.218Z,59.30
2018-01-14T15:25:22.444Z,59.20
2018-01-14T15:27:50.731Z,59.20
2018-01-14T15:30:19.029Z,59.90
2018-01-14T15:32:47.308Z,61.10
2018-01-14T15:35:15.558Z,63.30
2018-01-14T15:37:43.832Z,62.60
2018-01-14T15:40:12.122Z,63.00
2018-01-14T15:42:40.393Z,66.00
2018-01-14T15:45:08.641Z,66.30
2018-01-14T15:47:37.654Z,68.60
2018-01-14T15:50:05.915Z,68.50
2018-01-14T15:52:34.958Z,68.30
2018-01-14T15:55:03.187Z,67.40
2018-01-14T15:57:32.214Z,67.80
2018-01-14T16:00:01.404Z,67.20
2018-01-14T16:02:29.696Z,75.60
2018-01-14T16:04:57.945Z,79.20
2018-01-14T16:07:27.044Z,79.10
2018-01-14T16:09:56.071Z,80.60
2018-01-14T16:12:24.334Z,79.00
2018-01-14T16:14:52.570Z,80.00
2018-01-14T16:17:22.561Z,81.90
2018-01-14T16:19:50.831Z,79.30
2018-01-14T16:22:19.111Z,79.20
2018-01-14T16:24:47.409Z,80.50
2018-01-14T16:27:15.687Z,79.50
2018-01-14T16:29:43.942Z,80.40
2018-01-14T16:32:12.196Z,79.80
2018-01-14T16:34:40.468Z,79.70
2018-01-14T16:37:08.743Z,80.70
2018-01-14T16:39:37.016Z,78.90
2018-01-14T16:42:05.286Z,79.20
2018-01-14T16:44:33.537Z,79.30
2018-01-14T16:47:02.565Z,82.90
2018-01-14T16:49:30.838Z,80.90
2018-01-14T16:51:59.151Z,80.60
2018-01-14T16:54:27.428Z,79.90
2018-01-14T16:56:55.665Z,80.00
2018-01-14T16:59:23.959Z,81.10
2018-01-14T17:01:52.288Z,81.40
2018-01-14T17:04:20.523Z,81.00
2018-01-14T17:06:48.798Z,81.10
2018-01-14T17:09:17.091Z,81.80
2018-01-14T17:11:46.068Z,82.50
2018-01-14T17:14:14.304Z,81.20
2018-01-14T17:16:43.334Z,83.50
2018-01-14T17:19:11.618Z,81.80
2018-01-14T17:21:39.888Z,82.50
2018-01-14T17:24:08.145Z,82.70
2018-01-14T17:26:36.385Z,84.50
2018-01-14T17:29:04.722Z,85.30
2018-01-14T18:21:23.206Z,90.20
2018-01-14T18:23:51.517Z,89.30
2018-01-14T18:26:19.800Z,57.40
2018-01-14T18:28:48.053Z,57.00
2018-01-14T18:31:16.316Z,57.40
2018-01-14T18:33:44.602Z,57.30
2018-01-14T18:36:12.891Z,57.30
2018-01-14T18:38:41.242Z,57.60
2018-01-14T18:41:09.534Z,57.60
2018-01-14T18:43:37.829Z,57.80
2018-01-14T18:46:09.959Z,57.90
2018-01-14T18:48:38.244Z,58.60
2018-01-14T18:51:06.506Z,58.30
2018-01-14T18:53:34.749Z,58.10
2018-01-14T18:56:02.988Z,58.20
2018-01-14T18:58:31.278Z,58.30
2018-01-14T19:00:59.597Z,58.10
2018-01-14T19:03:27.829Z,57.80
2018-01-14T19:05:56.130Z,58.00
2018-01-14T19:08:24.372Z,58.10
2018-01-14T19:10:52.672Z,58.10
2018-01-14T19:13:20.980Z,58.40
2018-01-14T19:15:49.255Z,58.80
2018-01-14T19:18:17.510Z,59.10
2018-01-14T19:20:45.757Z,58.70
2018-01-14T19:23:14.063Z,59.10
2018-01-14T19:25:42.430Z,59.10
2018-01-14T19:28:10.685Z,59.10
2018-01-14T19:30:39.001Z,59.60
2018-01-14T19:33:07.323Z,59.50
2018-01-14T19:35:36.339Z,59.10
2018-01-14T19:38:04.585Z,59.10
2018-01-14T19:40:33.588Z,58.80
2018-01-14T19:43:02.690Z,58.80
2018-01-14T19:45:30.921Z,58.80
2018-01-14T19:47:59.203Z,58.80
2018-01-14T19:50:27.836Z,58.90
2018-01-14T19:52:56.124Z,58.50
2018-01-14T19:55:24.445Z,58.80
2018-01-14T19:57:52.742Z,59.30
2018-01-14T20:00:21.667Z,59.20
2018-01-14T20:02:50.031Z,59.20
2018-01-14T20:05:19.159Z,59.20
2018-01-14T20:07:47.551Z,59.20
2018-01-14T20:10:15.929Z,59.20
2018-01-14T20:12:44.249Z,59.40
2018-01-14T20:15:13.321Z,60.10
2018-01-14T20:17:41.568Z,59.40
2018-01-14T20:20:09.863Z,59.30
2018-01-14T20:22:38.179Z,59.10
2018-01-14T20:25:07.232Z,59.00
2018-01-14T20:27:35.539Z,59.00
2018-01-14T20:30:03.832Z,58.80
2018-01-14T20:32:32.168Z,58.90
2018-01-14T20:35:00.466Z,58.30
2018-01-14T20:37:28.743Z,58.20
2018-01-14T20:39:56.969Z,58.60
2018-01-14T20:42:26.081Z,58.70
2018-01-14T20:44:55.155Z,58.60
2018-01-14T20:47:23.398Z,58.60
2018-01-14T20:49:52.413Z,59.50
2018-01-14T20:52:20.668Z,59.40
2018-01-14T20:54:49.734Z,59.70
2018-01-14T20:57:18.475Z,60.00
2018-01-14T20:59:47.530Z,59.90
2018-01-14T21:02:15.813Z,59.60
2018-01-14T21:04:44.114Z,59.40
2018-01-14T21:07:13.117Z,59.60
2018-01-14T21:09:41.376Z,59.30
2018-01-14T21:12:10.372Z,59.70
2018-01-14T21:14:39.373Z,59.70
2018-01-14T21:17:08.471Z,59.30
2018-01-14T21:19:36.858Z,58.90
2018-01-14T21:22:05.149Z,59.10
2018-01-14T21:24:33.421Z,58.70
2018-01-14T21:27:01.672Z,58.90
2018-01-14T21:29:30.687Z,59.00
2018-01-14T21:31:58.994Z,58.60
2018-01-14T21:34:27.227Z,59.20
2018-01-14T21:36:56.300Z,59.50
2018-01-14T21:39:24.531Z,58.90
2018-01-14T21:41:52.792Z,59.20
2018-01-14T21:44:21.106Z,59.30
2018-01-14T21:46:49.423Z,58.90
2018-01-14T21:49:17.705Z,59.50
2018-01-14T21:51:46.754Z,59.80
2018-01-14T21:54:15.063Z,59.70
2018-01-14T21:56:43.308Z,59.10
2018-01-14T21:59:11.652Z,59.10
2018-01-14T22:01:39.909Z,59.30
2018-01-14T22:04:09.034Z,59.70
2018-01-14T22:06:37.287Z,59.70
2018-01-14T22:09:06.334Z,60.40
2018-01-14T22:11:34.607Z,60.40
2018-01-14T22:14:02.895Z,60.30
2018-01-14T22:16:32.045Z,59.90
2018-01-14T22:19:01.044Z,59.40
2018-01-14T22:21:29.348Z,59.40
2018-01-14T22:23:57.640Z,59.50
2018-01-14T22:26:26.658Z,59.70
2018-01-14T22:28:54.967Z,59.70
2018-01-14T22:31:23.207Z,60.60
2018-01-14T22:33:51.500Z,59.80
2018-01-14T22:36:19.774Z,60.20
2018-01-14T22:38:48.047Z,59.90
2018-01-14T22:41:16.302Z,60.60
2018-01-14T22:43:44.592Z,61.20
2018-01-14T22:46:12.895Z,59.10
2018-01-14T22:48:41.906Z,59.60
2018-01-14T22:51:10.263Z,59.50
2018-01-14T22:53:39.294Z,60.40
2018-01-14T22:56:07.532Z,60.70
2018-01-14T22:58:36.492Z,60.10
2018-01-14T23:01:04.748Z,60.70
2018-01-14T23:03:33.099Z,60.10
2018-01-14T23:06:02.152Z,60.20
2018-01-14T23:08:30.439Z,60.10
2018-01-14T23:10:58.704Z,60.70
2018-01-14T23:13:26.987Z,60.80
2018-01-14T23:15:55.261Z,60.90
2018-01-14T23:18:23.508Z,59.90
2018-01-14T23:20:51.788Z,60.20
2018-01-14T23:23:20.035Z,59.80
2018-01-14T23:25:48.317Z,60.00
2018-01-14T23:28:16.586Z,59.80
2018-01-14T23:30:44.840Z,60.00
2018-01-14T23:33:13.186Z,60.30
2018-01-14T23:35:42.212Z,60.60
2018-01-14T23:38:10.460Z,60.90
2018-01-14T23:40:38.776Z,59.40
2018-01-14T23:43:07.785Z,61.00
2018-01-14T23:45:36.100Z,61.00
2018-01-14T23:48:04.381Z,60.30
2018-01-14T23:50:32.666Z,60.30
2018-01-14T23:53:00.917Z,60.60
2018-01-14T23:55:29.183Z,60.60
2018-01-14T23:57:57.494Z,60.60
